UKOH/KHE METAR and TAF weather

Enter ICAO airport designator
Station Type Date Time Source
UKOH METAR 2019/12/16 06:00 UTC NOAA

UKOH 160600Z 18005MPS 3200 1000NW BR NSC 05/05 Q1022 R21/190060 NOSIG


Station Type Date Time Source
UKOH Decoded METAR 2019/12/16 06:00 UTC NOAA

Station name not available
Dec 16, 2019 - 01:00 AM EST / 2019.12.16 0600 UTC
Wind: from the S (180 degrees) at 11 MPH (10 KT):0
Visibility: 1 mile(s):0
Weather: mist
Temperature: 41 F (5 C)
Dew Point: 41 F (5 C)
Relative Humidity: 100%
Pressure (altimeter): 30.18 in. Hg (1022 hPa)
ob: UKOH 160600Z 18005MPS 3200 1000NW BR NSC 05/05 Q1022 R21/190060 NOSIG
cycle: 6

Station Type Date Time Source
UKOH TAF UTC NOAA

Error!

Example: see airport list